sensor_id;sensor_type;location;lat;lon;timestamp;P1;durP1;ratioP1;P2;durP2;ratioP2
17725;SDS011;8983;53.156;17.960;2023-05-31T00:01:07;3.70;;;2.20;;
17725;SDS011;8983;53.156;17.960;2023-05-31T00:03:36;5.43;;;2.27;;
17725;SDS011;8983;53.156;17.960;2023-05-31T00:06:08;4.63;;;2.50;;
17725;SDS011;8983;53.156;17.960;2023-05-31T00:08:37;4.83;;;2.57;;
17725;SDS011;8983;53.156;17.960;2023-05-31T00:11:06;4.33;;;2.60;;
17725;SDS011;8983;53.156;17.960;2023-05-31T00:13:34;3.50;;;2.20;;
17725;SDS011;8983;53.156;17.960;2023-05-31T00:16:05;4.43;;;2.50;;
17725;SDS011;8983;53.156;17.960;2023-05-31T00:18:54;4.17;;;2.40;;
17725;SDS011;8983;53.156;17.960;2023-05-31T00:21:24;3.00;;;2.07;;
17725;SDS011;8983;53.156;17.960;2023-05-31T00:23:53;3.80;;;2.50;;
17725;SDS011;8983;53.156;17.960;2023-05-31T00:26:21;5.47;;;2.47;;
17725;SDS011;8983;53.156;17.960;2023-05-31T00:28:49;3.47;;;2.30;;
17725;SDS011;8983;53.156;17.960;2023-05-31T00:31:17;2.73;;;2.33;;
17725;SDS011;8983;53.156;17.960;2023-05-31T00:33:46;3.33;;;2.10;;
17725;SDS011;8983;53.156;17.960;2023-05-31T00:36:14;3.40;;;2.10;;
17725;SDS011;8983;53.156;17.960;2023-05-31T00:38:42;3.67;;;2.23;;
17725;SDS011;8983;53.156;17.960;2023-05-31T00:41:11;2.67;;;2.10;;
17725;SDS011;8983;53.156;17.960;2023-05-31T00:43:40;3.30;;;2.50;;
17725;SDS011;8983;53.156;17.960;2023-05-31T00:46:18;3.97;;;2.30;;
17725;SDS011;8983;53.156;17.960;2023-05-31T00:48:52;3.43;;;2.47;;
17725;SDS011;8983;53.156;17.960;2023-05-31T00:51:21;4.57;;;2.33;;
17725;SDS011;8983;53.156;17.960;2023-05-31T00:53:51;6.33;;;2.50;;
17725;SDS011;8983;53.156;17.960;2023-05-31T00:56:21;6.83;;;2.40;;
17725;SDS011;8983;53.156;17.960;2023-05-31T00:58:49;6.03;;;2.30;;
17725;SDS011;8983;53.156;17.960;2023-05-31T01:01:19;5.67;;;2.63;;
17725;SDS011;8983;53.156;17.960;2023-05-31T01:03:48;4.33;;;2.53;;
17725;SDS011;8983;53.156;17.960;2023-05-31T01:06:17;4.37;;;2.30;;
17725;SDS011;8983;53.156;17.960;2023-05-31T01:08:45;6.53;;;2.57;;
17725;SDS011;8983;53.156;17.960;2023-05-31T01:11:15;5.07;;;2.43;;
17725;SDS011;8983;53.156;17.960;2023-05-31T01:13:52;2.97;;;2.20;;
17725;SDS011;8983;53.156;17.960;2023-05-31T01:16:31;3.37;;;2.13;;
17725;SDS011;8983;53.156;17.960;2023-05-31T01:19:05;4.43;;;2.30;;
17725;SDS011;8983;53.156;17.960;2023-05-31T01:21:39;4.93;;;2.40;;
17725;SDS011;8983;53.156;17.960;2023-05-31T01:24:21;3.77;;;2.30;;
17725;SDS011;8983;53.156;17.960;2023-05-31T01:26:54;3.00;;;2.20;;
17725;SDS011;8983;53.156;17.960;2023-05-31T01:29:26;3.03;;;2.23;;
17725;SDS011;8983;53.156;17.960;2023-05-31T01:31:56;2.53;;;2.23;;
17725;SDS011;8983;53.156;17.960;2023-05-31T01:34:26;5.73;;;2.40;;
17725;SDS011;8983;53.156;17.960;2023-05-31T01:36:54;3.17;;;2.00;;
17725;SDS011;8983;53.156;17.960;2023-05-31T01:39:22;4.73;;;2.67;;
17725;SDS011;8983;53.156;17.960;2023-05-31T01:41:50;5.13;;;2.20;;
17725;SDS011;8983;53.156;17.960;2023-05-31T01:44:21;4.90;;;2.40;;
17725;SDS011;8983;53.156;17.960;2023-05-31T01:46:50;3.37;;;2.37;;
17725;SDS011;8983;53.156;17.960;2023-05-31T01:49:19;3.40;;;2.20;;
17725;SDS011;8983;53.156;17.960;2023-05-31T01:51:49;2.33;;;2.13;;
17725;SDS011;8983;53.156;17.960;2023-05-31T01:54:18;2.93;;;2.47;;
17725;SDS011;8983;53.156;17.960;2023-05-31T01:56:46;3.73;;;2.47;;
17725;SDS011;8983;53.156;17.960;2023-05-31T01:59:15;8.97;;;2.70;;
17725;SDS011;8983;53.156;17.960;2023-05-31T02:01:46;3.47;;;2.53;;
17725;SDS011;8983;53.156;17.960;2023-05-31T02:04:16;5.03;;;2.90;;
17725;SDS011;8983;53.156;17.960;2023-05-31T02:06:46;2.50;;;2.30;;
17725;SDS011;8983;53.156;17.960;2023-05-31T02:09:14;4.13;;;2.37;;
17725;SDS011;8983;53.156;17.960;2023-05-31T02:11:42;2.77;;;2.30;;
17725;SDS011;8983;53.156;17.960;2023-05-31T02:14:10;5.40;;;2.37;;
17725;SDS011;8983;53.156;17.960;2023-05-31T02:16:39;3.63;;;2.27;;
17725;SDS011;8983;53.156;17.960;2023-05-31T02:19:08;3.60;;;2.33;;
17725;SDS011;8983;53.156;17.960;2023-05-31T02:21:40;5.83;;;2.70;;
17725;SDS011;8983;53.156;17.960;2023-05-31T02:24:08;5.23;;;2.70;;
17725;SDS011;8983;53.156;17.960;2023-05-31T02:26:37;4.30;;;2.77;;
17725;SDS011;8983;53.156;17.960;2023-05-31T02:29:05;7.23;;;2.80;;
17725;SDS011;8983;53.156;17.960;2023-05-31T02:31:33;3.07;;;2.37;;
17725;SDS011;8983;53.156;17.960;2023-05-31T02:34:01;5.83;;;2.77;;
17725;SDS011;8983;53.156;17.960;2023-05-31T02:36:31;5.83;;;2.60;;
17725;SDS011;8983;53.156;17.960;2023-05-31T02:38:59;6.63;;;3.10;;
17725;SDS011;8983;53.156;17.960;2023-05-31T02:41:27;5.83;;;2.60;;
17725;SDS011;8983;53.156;17.960;2023-05-31T02:43:55;5.90;;;2.70;;
17725;SDS011;8983;53.156;17.960;2023-05-31T02:46:23;5.83;;;3.30;;
17725;SDS011;8983;53.156;17.960;2023-05-31T02:48:51;5.87;;;3.17;;
17725;SDS011;8983;53.156;17.960;2023-05-31T02:51:19;4.30;;;2.50;;
17725;SDS011;8983;53.156;17.960;2023-05-31T02:53:49;7.03;;;3.07;;
17725;SDS011;8983;53.156;17.960;2023-05-31T02:56:17;8.47;;;3.00;;
17725;SDS011;8983;53.156;17.960;2023-05-31T02:58:46;3.17;;;2.70;;
17725;SDS011;8983;53.156;17.960;2023-05-31T03:01:14;5.93;;;2.70;;
17725;SDS011;8983;53.156;17.960;2023-05-31T03:03:42;3.97;;;2.60;;
17725;SDS011;8983;53.156;17.960;2023-05-31T03:06:10;3.67;;;2.53;;
17725;SDS011;8983;53.156;17.960;2023-05-31T03:08:43;3.00;;;2.40;;
17725;SDS011;8983;53.156;17.960;2023-05-31T03:11:12;4.87;;;3.13;;
17725;SDS011;8983;53.156;17.960;2023-05-31T03:13:40;7.03;;;2.70;;
17725;SDS011;8983;53.156;17.960;2023-05-31T03:16:08;4.70;;;2.90;;
17725;SDS011;8983;53.156;17.960;2023-05-31T03:18:37;7.87;;;2.97;;
17725;SDS011;8983;53.156;17.960;2023-05-31T03:21:06;4.03;;;2.70;;
17725;SDS011;8983;53.156;17.960;2023-05-31T03:23:34;6.07;;;2.97;;
17725;SDS011;8983;53.156;17.960;2023-05-31T03:26:02;6.87;;;2.90;;
17725;SDS011;8983;53.156;17.960;2023-05-31T03:28:32;11.57;;;3.23;;
17725;SDS011;8983;53.156;17.960;2023-05-31T03:31:00;12.10;;;3.90;;
17725;SDS011;8983;53.156;17.960;2023-05-31T03:33:28;14.03;;;3.77;;
17725;SDS011;8983;53.156;17.960;2023-05-31T03:35:57;12.90;;;3.30;;
17725;SDS011;8983;53.156;17.960;2023-05-31T03:38:25;9.53;;;3.83;;
17725;SDS011;8983;53.156;17.960;2023-05-31T03:40:53;6.33;;;3.40;;
17725;SDS011;8983;53.156;17.960;2023-05-31T03:43:21;9.57;;;3.33;;
17725;SDS011;8983;53.156;17.960;2023-05-31T03:45:50;7.50;;;3.57;;
17725;SDS011;8983;53.156;17.960;2023-05-31T03:48:18;8.93;;;3.57;;
17725;SDS011;8983;53.156;17.960;2023-05-31T03:50:46;5.70;;;3.10;;
17725;SDS011;8983;53.156;17.960;2023-05-31T03:53:14;7.43;;;3.30;;
17725;SDS011;8983;53.156;17.960;2023-05-31T03:55:43;8.07;;;3.80;;
17725;SDS011;8983;53.156;17.960;2023-05-31T03:58:11;8.10;;;3.50;;
17725;SDS011;8983;53.156;17.960;2023-05-31T04:00:39;8.07;;;3.70;;
17725;SDS011;8983;53.156;17.960;2023-05-31T04:03:09;9.20;;;4.03;;
17725;SDS011;8983;53.156;17.960;2023-05-31T04:05:38;6.43;;;3.27;;
17725;SDS011;8983;53.156;17.960;2023-05-31T04:08:06;10.83;;;3.43;;
17725;SDS011;8983;53.156;17.960;2023-05-31T04:10:34;5.93;;;3.20;;
17725;SDS011;8983;53.156;17.960;2023-05-31T04:13:03;5.50;;;3.40;;
17725;SDS011;8983;53.156;17.960;2023-05-31T04:15:31;8.47;;;3.47;;
17725;SDS011;8983;53.156;17.960;2023-05-31T04:18:00;6.10;;;4.03;;
17725;SDS011;8983;53.156;17.960;2023-05-31T04:20:29;8.53;;;3.67;;
17725;SDS011;8983;53.156;17.960;2023-05-31T04:22:58;4.27;;;3.10;;
17725;SDS011;8983;53.156;17.960;2023-05-31T04:25:26;6.03;;;3.63;;
17725;SDS011;8983;53.156;17.960;2023-05-31T04:27:54;6.50;;;3.90;;
17725;SDS011;8983;53.156;17.960;2023-05-31T04:30:22;6.70;;;3.30;;
17725;SDS011;8983;53.156;17.960;2023-05-31T04:32:51;8.67;;;3.83;;
17725;SDS011;8983;53.156;17.960;2023-05-31T04:35:19;5.13;;;3.50;;
17725;SDS011;8983;53.156;17.960;2023-05-31T04:37:49;6.37;;;3.40;;
17725;SDS011;8983;53.156;17.960;2023-05-31T04:40:19;6.70;;;3.43;;
17725;SDS011;8983;53.156;17.960;2023-05-31T04:42:48;6.07;;;3.67;;
17725;SDS011;8983;53.156;17.960;2023-05-31T04:45:16;6.63;;;3.53;;
17725;SDS011;8983;53.156;17.960;2023-05-31T04:47:44;8.93;;;3.73;;
17725;SDS011;8983;53.156;17.960;2023-05-31T04:50:13;6.17;;;3.20;;
17725;SDS011;8983;53.156;17.960;2023-05-31T04:52:41;5.87;;;3.23;;
17725;SDS011;8983;53.156;17.960;2023-05-31T04:55:11;5.63;;;3.47;;
17725;SDS011;8983;53.156;17.960;2023-05-31T04:57:39;5.03;;;3.10;;
17725;SDS011;8983;53.156;17.960;2023-05-31T05:00:07;8.30;;;3.47;;
17725;SDS011;8983;53.156;17.960;2023-05-31T05:02:38;8.03;;;3.50;;
17725;SDS011;8983;53.156;17.960;2023-05-31T05:05:06;8.87;;;3.37;;
17725;SDS011;8983;53.156;17.960;2023-05-31T05:07:34;7.50;;;3.43;;
17725;SDS011;8983;53.156;17.960;2023-05-31T05:10:03;5.30;;;3.70;;
17725;SDS011;8983;53.156;17.960;2023-05-31T05:12:33;4.33;;;2.83;;
17725;SDS011;8983;53.156;17.960;2023-05-31T05:15:01;6.80;;;3.20;;
17725;SDS011;8983;53.156;17.960;2023-05-31T05:17:29;5.93;;;3.00;;
17725;SDS011;8983;53.156;17.960;2023-05-31T05:19:58;4.90;;;2.80;;
17725;SDS011;8983;53.156;17.960;2023-05-31T05:22:27;8.47;;;2.83;;
17725;SDS011;8983;53.156;17.960;2023-05-31T05:24:55;7.60;;;3.50;;
17725;SDS011;8983;53.156;17.960;2023-05-31T05:27:24;6.20;;;2.93;;
17725;SDS011;8983;53.156;17.960;2023-05-31T05:29:53;6.00;;;2.73;;
17725;SDS011;8983;53.156;17.960;2023-05-31T05:32:22;7.87;;;2.93;;
17725;SDS011;8983;53.156;17.960;2023-05-31T05:34:50;5.70;;;2.60;;
17725;SDS011;8983;53.156;17.960;2023-05-31T05:37:18;5.73;;;2.70;;
17725;SDS011;8983;53.156;17.960;2023-05-31T05:39:46;7.70;;;2.70;;
17725;SDS011;8983;53.156;17.960;2023-05-31T05:42:14;5.30;;;2.37;;
17725;SDS011;8983;53.156;17.960;2023-05-31T05:44:42;7.47;;;2.50;;
17725;SDS011;8983;53.156;17.960;2023-05-31T05:47:12;3.67;;;2.33;;
17725;SDS011;8983;53.156;17.960;2023-05-31T05:49:40;8.93;;;2.67;;
17725;SDS011;8983;53.156;17.960;2023-05-31T05:52:08;5.60;;;2.60;;
17725;SDS011;8983;53.156;17.960;2023-05-31T05:54:36;4.43;;;2.43;;
17725;SDS011;8983;53.156;17.960;2023-05-31T05:57:05;7.03;;;2.40;;
17725;SDS011;8983;53.156;17.960;2023-05-31T05:59:33;3.97;;;2.10;;
17725;SDS011;8983;53.156;17.960;2023-05-31T06:02:01;3.60;;;2.20;;
17725;SDS011;8983;53.156;17.960;2023-05-31T06:04:31;5.90;;;2.60;;
17725;SDS011;8983;53.156;17.960;2023-05-31T06:06:59;3.20;;;2.00;;
17725;SDS011;8983;53.156;17.960;2023-05-31T06:09:27;3.87;;;1.83;;
17725;SDS011;8983;53.156;17.960;2023-05-31T06:11:55;3.23;;;2.03;;
17725;SDS011;8983;53.156;17.960;2023-05-31T06:14:24;6.03;;;1.97;;
17725;SDS011;8983;53.156;17.960;2023-05-31T06:16:52;4.73;;;2.10;;
17725;SDS011;8983;53.156;17.960;2023-05-31T06:19:20;6.23;;;1.80;;
17725;SDS011;8983;53.156;17.960;2023-05-31T06:21:50;4.53;;;2.00;;
17725;SDS011;8983;53.156;17.960;2023-05-31T06:24:20;3.13;;;1.70;;
17725;SDS011;8983;53.156;17.960;2023-05-31T06:26:48;2.93;;;1.40;;
17725;SDS011;8983;53.156;17.960;2023-05-31T06:29:16;2.07;;;1.63;;
17725;SDS011;8983;53.156;17.960;2023-05-31T06:31:45;2.03;;;1.70;;
17725;SDS011;8983;53.156;17.960;2023-05-31T06:34:13;3.17;;;1.83;;
17725;SDS011;8983;53.156;17.960;2023-05-31T06:36:41;2.00;;;1.63;;
17725;SDS011;8983;53.156;17.960;2023-05-31T06:39:11;3.13;;;1.70;;
17725;SDS011;8983;53.156;17.960;2023-05-31T06:41:39;3.40;;;1.50;;
17725;SDS011;8983;53.156;17.960;2023-05-31T06:44:07;2.30;;;1.50;;
17725;SDS011;8983;53.156;17.960;2023-05-31T06:46:35;2.80;;;1.53;;
17725;SDS011;8983;53.156;17.960;2023-05-31T06:49:03;2.53;;;1.50;;
17725;SDS011;8983;53.156;17.960;2023-05-31T06:51:38;2.60;;;1.87;;
17725;SDS011;8983;53.156;17.960;2023-05-31T06:54:06;3.87;;;1.40;;
17725;SDS011;8983;53.156;17.960;2023-05-31T06:56:36;2.03;;;1.50;;
17725;SDS011;8983;53.156;17.960;2023-05-31T06:59:04;2.03;;;1.47;;
17725;SDS011;8983;53.156;17.960;2023-05-31T07:01:32;1.40;;;1.30;;
17725;SDS011;8983;53.156;17.960;2023-05-31T07:04:00;2.97;;;1.50;;
17725;SDS011;8983;53.156;17.960;2023-05-31T07:06:28;2.43;;;1.43;;
17725;SDS011;8983;53.156;17.960;2023-05-31T07:08:56;2.80;;;1.70;;
17725;SDS011;8983;53.156;17.960;2023-05-31T07:11:25;2.60;;;1.47;;
17725;SDS011;8983;53.156;17.960;2023-05-31T07:13:55;1.90;;;1.40;;
17725;SDS011;8983;53.156;17.960;2023-05-31T07:16:27;2.03;;;1.67;;
17725;SDS011;8983;53.156;17.960;2023-05-31T07:18:55;2.30;;;1.63;;
17725;SDS011;8983;53.156;17.960;2023-05-31T07:21:23;1.73;;;1.50;;
17725;SDS011;8983;53.156;17.960;2023-05-31T07:23:51;2.40;;;1.50;;
17725;SDS011;8983;53.156;17.960;2023-05-31T07:26:19;1.60;;;1.50;;
17725;SDS011;8983;53.156;17.960;2023-05-31T07:28:48;4.70;;;2.03;;
17725;SDS011;8983;53.156;17.960;2023-05-31T07:31:20;1.73;;;1.40;;
17725;SDS011;8983;53.156;17.960;2023-05-31T07:33:49;2.70;;;1.40;;
17725;SDS011;8983;53.156;17.960;2023-05-31T07:36:17;2.27;;;1.57;;
17725;SDS011;8983;53.156;17.960;2023-05-31T07:38:46;1.93;;;1.50;;
17725;SDS011;8983;53.156;17.960;2023-05-31T07:41:14;1.93;;;1.50;;
17725;SDS011;8983;53.156;17.960;2023-05-31T07:43:43;3.37;;;1.40;;
17725;SDS011;8983;53.156;17.960;2023-05-31T07:46:12;1.13;;;1.13;;
17725;SDS011;8983;53.156;17.960;2023-05-31T07:48:41;1.50;;;1.10;;
17725;SDS011;8983;53.156;17.960;2023-05-31T07:51:09;2.87;;;1.30;;
17725;SDS011;8983;53.156;17.960;2023-05-31T07:53:38;2.57;;;1.30;;
17725;SDS011;8983;53.156;17.960;2023-05-31T07:56:07;1.87;;;1.17;;
17725;SDS011;8983;53.156;17.960;2023-05-31T07:58:35;2.77;;;1.67;;
17725;SDS011;8983;53.156;17.960;2023-05-31T08:01:03;1.60;;;1.30;;
17725;SDS011;8983;53.156;17.960;2023-05-31T08:03:31;1.67;;;1.33;;
17725;SDS011;8983;53.156;17.960;2023-05-31T08:06:01;1.27;;;1.17;;
17725;SDS011;8983;53.156;17.960;2023-05-31T08:08:29;2.37;;;1.47;;
17725;SDS011;8983;53.156;17.960;2023-05-31T08:10:59;2.10;;;1.37;;
17725;SDS011;8983;53.156;17.960;2023-05-31T08:13:27;1.30;;;1.20;;
17725;SDS011;8983;53.156;17.960;2023-05-31T08:15:56;4.00;;;1.40;;
17725;SDS011;8983;53.156;17.960;2023-05-31T08:18:24;1.40;;;1.20;;
17725;SDS011;8983;53.156;17.960;2023-05-31T08:20:52;1.50;;;1.37;;
17725;SDS011;8983;53.156;17.960;2023-05-31T08:23:21;2.23;;;1.30;;
17725;SDS011;8983;53.156;17.960;2023-05-31T08:25:49;1.97;;;1.27;;
17725;SDS011;8983;53.156;17.960;2023-05-31T08:28:19;1.40;;;1.20;;
17725;SDS011;8983;53.156;17.960;2023-05-31T08:30:47;3.53;;;1.30;;
17725;SDS011;8983;53.156;17.960;2023-05-31T08:33:16;2.70;;;1.40;;
17725;SDS011;8983;53.156;17.960;2023-05-31T08:35:44;3.57;;;1.40;;
17725;SDS011;8983;53.156;17.960;2023-05-31T08:38:12;1.43;;;1.20;;
17725;SDS011;8983;53.156;17.960;2023-05-31T08:40:41;2.27;;;1.40;;
17725;SDS011;8983;53.156;17.960;2023-05-31T08:43:10;2.73;;;1.40;;
17725;SDS011;8983;53.156;17.960;2023-05-31T08:45:43;2.43;;;1.33;;
17725;SDS011;8983;53.156;17.960;2023-05-31T08:48:13;1.70;;;1.10;;
17725;SDS011;8983;53.156;17.960;2023-05-31T08:50:48;1.80;;;1.10;;
17725;SDS011;8983;53.156;17.960;2023-05-31T08:53:19;2.47;;;1.20;;
17725;SDS011;8983;53.156;17.960;2023-05-31T08:55:52;1.30;;;1.20;;
17725;SDS011;8983;53.156;17.960;2023-05-31T08:58:21;1.83;;;1.30;;
17725;SDS011;8983;53.156;17.960;2023-05-31T09:00:50;1.20;;;1.10;;
17725;SDS011;8983;53.156;17.960;2023-05-31T09:03:18;1.27;;;1.17;;
17725;SDS011;8983;53.156;17.960;2023-05-31T09:05:53;2.63;;;1.30;;
17725;SDS011;8983;53.156;17.960;2023-05-31T09:08:21;3.70;;;1.13;;
17725;SDS011;8983;53.156;17.960;2023-05-31T09:10:51;4.47;;;1.23;;
17725;SDS011;8983;53.156;17.960;2023-05-31T09:13:19;2.40;;;1.40;;
17725;SDS011;8983;53.156;17.960;2023-05-31T09:15:48;1.87;;;1.37;;
17725;SDS011;8983;53.156;17.960;2023-05-31T09:18:18;1.67;;;1.37;;
17725;SDS011;8983;53.156;17.960;2023-05-31T09:20:48;3.93;;;1.60;;
17725;SDS011;8983;53.156;17.960;2023-05-31T09:23:19;2.47;;;1.43;;
17725;SDS011;8983;53.156;17.960;2023-05-31T09:25:47;3.20;;;1.20;;
17725;SDS011;8983;53.156;17.960;2023-05-31T09:28:21;2.23;;;1.10;;
17725;SDS011;8983;53.156;17.960;2023-05-31T09:31:00;2.20;;;1.10;;
17725;SDS011;8983;53.156;17.960;2023-05-31T09:33:37;1.50;;;1.23;;
17725;SDS011;8983;53.156;17.960;2023-05-31T09:36:06;1.60;;;1.27;;
17725;SDS011;8983;53.156;17.960;2023-05-31T09:38:36;1.97;;;1.40;;
17725;SDS011;8983;53.156;17.960;2023-05-31T09:41:11;1.47;;;1.20;;
17725;SDS011;8983;53.156;17.960;2023-05-31T09:43:44;2.20;;;1.20;;
17725;SDS011;8983;53.156;17.960;2023-05-31T09:46:15;2.13;;;1.30;;
17725;SDS011;8983;53.156;17.960;2023-05-31T09:48:44;3.33;;;1.47;;
17725;SDS011;8983;53.156;17.960;2023-05-31T09:51:13;2.40;;;1.40;;
17725;SDS011;8983;53.156;17.960;2023-05-31T09:53:42;1.73;;;1.30;;
17725;SDS011;8983;53.156;17.960;2023-05-31T09:56:11;2.73;;;1.40;;
17725;SDS011;8983;53.156;17.960;2023-05-31T09:58:46;6.00;;;1.43;;
17725;SDS011;8983;53.156;17.960;2023-05-31T10:01:15;4.20;;;1.43;;
17725;SDS011;8983;53.156;17.960;2023-05-31T10:03:43;2.03;;;1.10;;
17725;SDS011;8983;53.156;17.960;2023-05-31T10:06:13;1.85;;;1.20;;
17725;SDS011;8983;53.156;17.960;2023-05-31T10:08:44;1.30;;;1.20;;
17725;SDS011;8983;53.156;17.960;2023-05-31T10:11:15;1.50;;;1.40;;
17725;SDS011;8983;53.156;17.960;2023-05-31T10:13:47;1.90;;;1.17;;
17725;SDS011;8983;53.156;17.960;2023-05-31T10:16:17;2.92;;;1.27;;
17725;SDS011;8983;53.156;17.960;2023-05-31T10:18:48;1.70;;;1.27;;
17725;SDS011;8983;53.156;17.960;2023-05-31T10:21:21;1.87;;;1.37;;
17725;SDS011;8983;53.156;17.960;2023-05-31T10:23:55;2.03;;;1.00;;
17725;SDS011;8983;53.156;17.960;2023-05-31T10:26:26;1.42;;;1.13;;
17725;SDS011;8983;53.156;17.960;2023-05-31T10:29:01;1.85;;;1.30;;
17725;SDS011;8983;53.156;17.960;2023-05-31T10:31:36;3.60;;;1.58;;
17725;SDS011;8983;53.156;17.960;2023-05-31T10:34:13;1.88;;;1.25;;
17725;SDS011;8983;53.156;17.960;2023-05-31T10:36:46;1.50;;;1.40;;
17725;SDS011;8983;53.156;17.960;2023-05-31T10:39:15;2.53;;;1.33;;
17725;SDS011;8983;53.156;17.960;2023-05-31T10:41:54;1.50;;;1.40;;
17725;SDS011;8983;53.156;17.960;2023-05-31T10:44:33;3.03;;;1.37;;
17725;SDS011;8983;53.156;17.960;2023-05-31T10:47:07;1.35;;;1.20;;
17725;SDS011;8983;53.156;17.960;2023-05-31T10:49:39;1.63;;;1.23;;
17725;SDS011;8983;53.156;17.960;2023-05-31T10:52:11;2.28;;;1.50;;
17725;SDS011;8983;53.156;17.960;2023-05-31T10:54:41;4.43;;;1.50;;
17725;SDS011;8983;53.156;17.960;2023-05-31T10:57:09;2.92;;;1.42;;
17725;SDS011;8983;53.156;17.960;2023-05-31T10:59:41;2.45;;;1.20;;
17725;SDS011;8983;53.156;17.960;2023-05-31T11:02:11;1.60;;;1.27;;
17725;SDS011;8983;53.156;17.960;2023-05-31T11:04:39;1.75;;;1.40;;
17725;SDS011;8983;53.156;17.960;2023-05-31T11:07:13;3.45;;;1.08;;
17725;SDS011;8983;53.156;17.960;2023-05-31T11:12:36;1.83;;;1.27;;
17725;SDS011;8983;53.156;17.960;2023-05-31T11:15:13;1.88;;;1.67;;
17725;SDS011;8983;53.156;17.960;2023-05-31T11:17:50;1.52;;;1.42;;
17725;SDS011;8983;53.156;17.960;2023-05-31T11:20:19;2.55;;;1.30;;
17725;SDS011;8983;53.156;17.960;2023-05-31T11:22:57;2.58;;;1.02;;
17725;SDS011;8983;53.156;17.960;2023-05-31T11:26:06;2.08;;;1.35;;
17725;SDS011;8983;53.156;17.960;2023-05-31T11:28:54;1.17;;;0.93;;
17725;SDS011;8983;53.156;17.960;2023-05-31T11:34:26;1.20;;;1.10;;
17725;SDS011;8983;53.156;17.960;2023-05-31T11:36:56;1.75;;;1.25;;
17725;SDS011;8983;53.156;17.960;2023-05-31T11:39:25;5.78;;;1.42;;
17725;SDS011;8983;53.156;17.960;2023-05-31T11:41:54;1.50;;;1.20;;
17725;SDS011;8983;53.156;17.960;2023-05-31T11:44:26;1.88;;;1.20;;
17725;SDS011;8983;53.156;17.960;2023-05-31T11:47:03;1.60;;;1.20;;
17725;SDS011;8983;53.156;17.960;2023-05-31T11:49:33;2.33;;;1.52;;
17725;SDS011;8983;53.156;17.960;2023-05-31T11:52:01;1.48;;;1.13;;
17725;SDS011;8983;53.156;17.960;2023-05-31T11:54:31;3.13;;;1.30;;
17725;SDS011;8983;53.156;17.960;2023-05-31T11:57:02;2.00;;;1.50;;
17725;SDS011;8983;53.156;17.960;2023-05-31T11:59:33;1.38;;;1.27;;
17725;SDS011;8983;53.156;17.960;2023-05-31T12:02:04;3.33;;;1.40;;
17725;SDS011;8983;53.156;17.960;2023-05-31T12:04:33;2.38;;;1.70;;
17725;SDS011;8983;53.156;17.960;2023-05-31T12:07:03;4.45;;;1.48;;
17725;SDS011;8983;53.156;17.960;2023-05-31T12:09:32;4.32;;;1.42;;
17725;SDS011;8983;53.156;17.960;2023-05-31T12:12:01;3.85;;;1.67;;
17725;SDS011;8983;53.156;17.960;2023-05-31T12:14:32;1.50;;;1.40;;
17725;SDS011;8983;53.156;17.960;2023-05-31T12:17:00;3.05;;;1.30;;
17725;SDS011;8983;53.156;17.960;2023-05-31T12:19:31;4.30;;;1.48;;
17725;SDS011;8983;53.156;17.960;2023-05-31T12:22:01;2.55;;;1.40;;
17725;SDS011;8983;53.156;17.960;2023-05-31T12:24:29;3.75;;;1.27;;
17725;SDS011;8983;53.156;17.960;2023-05-31T12:26:58;2.35;;;1.35;;
17725;SDS011;8983;53.156;17.960;2023-05-31T12:29:27;2.88;;;1.55;;
17725;SDS011;8983;53.156;17.960;2023-05-31T12:32:00;1.92;;;1.55;;
17725;SDS011;8983;53.156;17.960;2023-05-31T12:34:33;1.52;;;1.40;;
17725;SDS011;8983;53.156;17.960;2023-05-31T12:37:04;1.92;;;1.38;;
17725;SDS011;8983;53.156;17.960;2023-05-31T12:39:33;3.25;;;1.63;;
17725;SDS011;8983;53.156;17.960;2023-05-31T12:42:01;3.30;;;1.20;;
17725;SDS011;8983;53.156;17.960;2023-05-31T12:44:32;2.65;;;1.08;;
17725;SDS011;8983;53.156;17.960;2023-05-31T12:47:01;1.48;;;1.38;;
17725;SDS011;8983;53.156;17.960;2023-05-31T12:49:30;1.60;;;1.13;;
17725;SDS011;8983;53.156;17.960;2023-05-31T12:52:01;1.60;;;1.13;;
17725;SDS011;8983;53.156;17.960;2023-05-31T12:54:32;2.03;;;1.15;;
17725;SDS011;8983;53.156;17.960;2023-05-31T12:57:01;1.40;;;1.00;;
17725;SDS011;8983;53.156;17.960;2023-05-31T12:59:31;4.35;;;1.30;;
17725;SDS011;8983;53.156;17.960;2023-05-31T13:01:59;1.85;;;1.42;;
17725;SDS011;8983;53.156;17.960;2023-05-31T13:04:29;4.68;;;1.10;;
17725;SDS011;8983;53.156;17.960;2023-05-31T13:06:58;2.67;;;1.23;;
17725;SDS011;8983;53.156;17.960;2023-05-31T13:09:28;1.83;;;1.40;;
17725;SDS011;8983;53.156;17.960;2023-05-31T13:11:58;2.58;;;1.30;;
17725;SDS011;8983;53.156;17.960;2023-05-31T13:14:26;0.93;;;0.90;;
17725;SDS011;8983;53.156;17.960;2023-05-31T13:16:54;2.65;;;1.20;;
17725;SDS011;8983;53.156;17.960;2023-05-31T13:19:24;1.35;;;1.10;;
17725;SDS011;8983;53.156;17.960;2023-05-31T13:21:52;3.15;;;1.38;;
17725;SDS011;8983;53.156;17.960;2023-05-31T13:24:21;3.25;;;1.48;;
17725;SDS011;8983;53.156;17.960;2023-05-31T13:26:50;4.45;;;1.33;;
17725;SDS011;8983;53.156;17.960;2023-05-31T13:29:18;1.27;;;1.17;;
17725;SDS011;8983;53.156;17.960;2023-05-31T13:31:48;1.77;;;1.30;;
17725;SDS011;8983;53.156;17.960;2023-05-31T13:34:16;2.00;;;1.20;;
17725;SDS011;8983;53.156;17.960;2023-05-31T13:36:44;1.52;;;1.27;;
17725;SDS011;8983;53.156;17.960;2023-05-31T13:39:14;1.27;;;1.00;;
17725;SDS011;8983;53.156;17.960;2023-05-31T13:41:43;2.38;;;1.52;;
17725;SDS011;8983;53.156;17.960;2023-05-31T13:44:12;6.72;;;1.50;;
17725;SDS011;8983;53.156;17.960;2023-05-31T13:46:41;3.58;;;1.48;;
17725;SDS011;8983;53.156;17.960;2023-05-31T13:49:10;3.90;;;1.20;;
17725;SDS011;8983;53.156;17.960;2023-05-31T13:51:41;4.30;;;1.17;;
17725;SDS011;8983;53.156;17.960;2023-05-31T13:54:10;5.78;;;1.40;;
17725;SDS011;8983;53.156;17.960;2023-05-31T13:56:39;2.40;;;1.30;;
17725;SDS011;8983;53.156;17.960;2023-05-31T13:59:08;2.00;;;1.30;;
17725;SDS011;8983;53.156;17.960;2023-05-31T14:01:37;1.05;;;0.95;;
17725;SDS011;8983;53.156;17.960;2023-05-31T14:04:05;2.78;;;1.45;;
17725;SDS011;8983;53.156;17.960;2023-05-31T14:06:34;2.95;;;1.52;;
17725;SDS011;8983;53.156;17.960;2023-05-31T14:09:02;3.38;;;1.45;;
17725;SDS011;8983;53.156;17.960;2023-05-31T14:11:30;2.42;;;1.10;;
17725;SDS011;8983;53.156;17.960;2023-05-31T14:13:58;2.75;;;1.40;;
17725;SDS011;8983;53.156;17.960;2023-05-31T14:16:28;2.55;;;1.10;;
17725;SDS011;8983;53.156;17.960;2023-05-31T14:18:56;1.70;;;1.17;;
17725;SDS011;8983;53.156;17.960;2023-05-31T14:21:24;1.85;;;1.35;;
17725;SDS011;8983;53.156;17.960;2023-05-31T14:23:53;4.72;;;1.52;;
17725;SDS011;8983;53.156;17.960;2023-05-31T14:26:21;1.63;;;1.25;;
17725;SDS011;8983;53.156;17.960;2023-05-31T14:28:49;2.47;;;1.30;;
17725;SDS011;8983;53.156;17.960;2023-05-31T14:31:17;7.13;;;1.50;;
17725;SDS011;8983;53.156;17.960;2023-05-31T14:33:47;1.70;;;1.25;;
17725;SDS011;8983;53.156;17.960;2023-05-31T14:36:16;3.42;;;1.33;;
17725;SDS011;8983;53.156;17.960;2023-05-31T14:38:44;1.65;;;1.20;;
17725;SDS011;8983;53.156;17.960;2023-05-31T14:41:12;2.78;;;1.30;;
17725;SDS011;8983;53.156;17.960;2023-05-31T14:43:40;4.38;;;1.38;;
17725;SDS011;8983;53.156;17.960;2023-05-31T14:46:09;2.55;;;1.40;;
17725;SDS011;8983;53.156;17.960;2023-05-31T14:48:37;3.70;;;1.30;;
17725;SDS011;8983;53.156;17.960;2023-05-31T14:51:07;1.35;;;1.00;;
17725;SDS011;8983;53.156;17.960;2023-05-31T14:53:35;2.05;;;1.33;;
17725;SDS011;8983;53.156;17.960;2023-05-31T14:56:04;2.70;;;1.40;;
17725;SDS011;8983;53.156;17.960;2023-05-31T14:58:43;2.10;;;1.20;;
17725;SDS011;8983;53.156;17.960;2023-05-31T15:01:13;2.17;;;1.10;;
17725;SDS011;8983;53.156;17.960;2023-05-31T15:03:41;1.73;;;1.50;;
17725;SDS011;8983;53.156;17.960;2023-05-31T15:06:11;2.33;;;1.38;;
17725;SDS011;8983;53.156;17.960;2023-05-31T15:08:39;1.60;;;0.93;;